Time;durP1;ratioP1;P1;durP2;ratioP2;P2;SDS_P1;SDS_P2;PMS_P1;PMS_P2;Temp;Humidity;BMP_temperature;BMP_pressure;BME280_temperature;BME280_humidity;BME280_pressure;Samples;Min_cycle;Max_cycle;Signal;HPM_P1;HPM_P2
2022/06/13 00:00:49;;;;;;;4.73;2.50;;;17.10;92.50;;;;;;5065859;28;20448;-82
2022/06/13 00:03:15;;;;;;;4.33;2.67;;;17.00;92.90;;;;;;5057858;28;20233;-82
2022/06/13 00:05:41;;;;;;;5.37;3.63;;;17.00;93.40;;;;;;5067481;28;20182;-82
2022/06/13 00:08:06;;;;;;;8.03;2.87;;;17.00;93.40;;;;;;5077251;28;20574;-82
2022/06/13 00:10:32;;;;;;;5.70;2.70;;;17.00;93.70;;;;;;5075014;28;20206;-83
2022/06/13 00:12:57;;;;;;;5.33;2.63;;;17.00;93.40;;;;;;5063363;28;20167;-82
2022/06/13 00:15:23;;;;;;;5.33;2.17;;;17.00;92.40;;;;;;5077607;28;20198;-81
2022/06/13 00:17:48;;;;;;;4.20;2.33;;;17.00;92.60;;;;;;5076764;28;20194;-82
2022/06/13 00:20:14;;;;;;;6.07;3.00;;;17.00;91.90;;;;;;5076759;28;20170;-83
2022/06/13 00:22:41;;;;;;;7.70;2.57;;;17.00;91.10;;;;;;5076899;28;20678;-83
2022/06/13 00:25:07;;;;;;;3.60;2.33;;;16.90;90.80;;;;;;5063132;28;20425;-82
2022/06/13 00:27:33;;;;;;;3.17;2.20;;;16.90;90.70;;;;;;5076117;28;20881;-82
2022/06/13 00:29:59;;;;;;;6.20;2.80;;;17.00;90.60;;;;;;5081351;28;20456;-82
2022/06/13 00:32:24;;;;;;;4.37;2.10;;;17.00;90.40;;;;;;5052234;28;20506;-82
2022/06/13 00:34:51;;;;;;;6.80;2.40;;;17.00;90.50;;;;;;5055541;28;20167;-83
2022/06/13 00:37:16;;;;;;;4.50;2.47;;;17.00;90.40;;;;;;5055819;28;20187;-82
2022/06/13 00:39:42;;;;;;;7.03;2.70;;;17.00;90.50;;;;;;5056164;28;20505;-82
2022/06/13 00:42:10;;;;;;;6.27;2.40;;;17.00;90.50;;;;;;5055978;28;20175;-82
2022/06/13 00:44:38;;;;;;;8.13;2.93;;;17.00;90.60;;;;;;5055417;28;20190;-82
2022/06/13 00:47:04;;;;;;;4.53;2.43;;;17.00;90.80;;;;;;5052607;28;20445;-82
2022/06/13 00:49:38;;;;;;;7.90;2.80;;;17.00;90.60;;;;;;5070670;28;20839;-82
2022/06/13 00:52:25;;;;;;;4.43;2.30;;;17.00;90.70;;;;;;5056449;28;20274;-82
2022/06/13 00:54:52;;;;;;;6.40;2.70;;;17.00;90.70;;;;;;5055196;28;20500;-82
2022/06/13 00:57:22;;;;;;;4.80;2.53;;;17.00;90.80;;;;;;5055529;28;20426;-83
2022/06/13 00:59:51;;;;;;;4.73;2.10;;;17.00;91.00;;;;;;5074074;28;20416;-83
2022/06/13 01:02:17;;;;;;;21.33;5.10;;;17.00;91.30;;;;;;5056258;28;20512;-83
2022/06/13 01:04:43;;;;;;;6.47;2.80;;;17.00;91.30;;;;;;5055482;28;20420;-83
2022/06/13 01:07:10;;;;;;;5.60;2.50;;;17.00;91.20;;;;;;5055800;28;20934;-82
2022/06/13 01:12:23;;;;;;;7.03;2.30;;;16.90;91.50;;;;;;5073540;28;20416;-82
2022/06/13 01:15:07;;;;;;;4.63;2.60;;;16.90;91.60;;;;;;5055030;28;20413;-83
2022/06/13 01:17:57;;;;;;;2.63;2.20;;;16.90;91.90;;;;;;5056792;28;20467;-83
2022/06/13 01:20:45;;;;;;;5.27;2.13;;;16.90;92.00;;;;;;5077889;28;20637;-82
2022/06/13 01:24:03;;;;;;;9.50;3.23;;;16.90;92.00;;;;;;5072833;28;20553;-83
2022/06/13 01:26:34;;;;;;;5.90;2.60;;;16.90;92.20;;;;;;5058402;28;20438;-83
2022/06/13 01:29:25;;;;;;;7.43;2.37;;;16.90;92.20;;;;;;5051027;28;20787;-83
2022/06/13 01:32:12;;;;;;;3.30;2.77;;;16.80;92.30;;;;;;5051447;28;20406;-83
2022/06/13 01:35:06;;;;;;;6.40;2.50;;;16.80;92.60;;;;;;5051144;28;20411;-83
2022/06/13 01:37:59;;;;;;;7.97;2.97;;;16.80;92.70;;;;;;5037715;28;20446;-83
2022/06/13 01:40:45;;;;;;;7.17;2.40;;;16.80;92.80;;;;;;5029317;28;20423;-83
2022/06/13 01:43:13;;;;;;;8.63;2.73;;;16.80;92.90;;;;;;5027277;28;20465;-83
2022/06/13 01:45:52;;;;;;;6.67;2.93;;;16.80;92.90;;;;;;5050567;28;20419;-83
2022/06/13 01:48:52;;;;;;;7.37;2.47;;;16.80;93.00;;;;;;5051290;28;20437;-83
2022/06/13 01:51:17;;;;;;;9.30;2.77;;;16.80;93.00;;;;;;5050684;28;20422;-83
2022/06/13 01:53:52;;;;;;;5.07;2.40;;;16.80;93.20;;;;;;5052291;28;20418;-83
2022/06/13 01:56:25;;;;;;;7.53;2.83;;;16.80;93.30;;;;;;5050811;28;20203;-83
2022/06/13 01:59:00;;;;;;;7.27;3.00;;;16.80;93.60;;;;;;5050810;28;20442;-83
2022/06/13 02:01:42;;;;;;;4.17;2.40;;;16.70;93.80;;;;;;5051402;28;20462;-83
2022/06/13 02:04:31;;;;;;;5.53;2.80;;;16.70;93.80;;;;;;5050563;28;20487;-83
2022/06/13 02:07:03;;;;;;;9.40;2.67;;;16.70;94.10;;;;;;5037288;28;20438;-82
2022/06/13 02:09:36;;;;;;;3.80;2.80;;;16.70;94.10;;;;;;5050523;28;20645;-82
2022/06/13 02:12:01;;;;;;;13.20;2.87;;;16.60;94.50;;;;;;5030873;28;20455;-83
2022/06/13 02:14:48;;;;;;;5.23;2.50;;;16.60;94.70;;;;;;5044297;28;20430;-83
2022/06/13 02:17:20;;;;;;;11.10;2.80;;;16.60;94.90;;;;;;5037971;28;20248;-83
2022/06/13 02:20:25;;;;;;;9.53;2.90;;;16.60;95.00;;;;;;5049815;28;20465;-82
2022/06/13 02:22:56;;;;;;;6.60;3.20;;;16.50;95.10;;;;;;5025841;28;20493;-83
2022/06/13 02:25:24;;;;;;;4.90;2.63;;;16.50;95.30;;;;;;5048149;28;20419;-83
2022/06/13 02:28:32;;;;;;;16.20;4.07;;;16.50;95.50;;;;;;5050588;28;20442;-83
2022/06/13 02:31:20;;;;;;;5.27;2.97;;;16.50;95.60;;;;;;5047803;28;20423;-83
2022/06/13 02:33:55;;;;;;;8.30;3.17;;;16.40;95.70;;;;;;5042904;28;20431;-83
2022/06/13 02:36:26;;;;;;;7.00;3.07;;;16.40;96.00;;;;;;5035443;28;20810;-83
2022/06/13 02:38:55;;;;;;;5.57;3.07;;;16.40;96.10;;;;;;5029315;28;20481;-83
2022/06/13 02:41:26;;;;;;;4.33;2.77;;;16.30;96.40;;;;;;5036548;28;20466;-83
2022/06/13 02:43:58;;;;;;;8.07;2.87;;;16.30;96.60;;;;;;5037083;28;20702;-83
2022/06/13 02:46:38;;;;;;;8.20;3.57;;;16.30;96.60;;;;;;5037916;28;20501;-82
2022/06/13 02:49:22;;;;;;;6.33;3.23;;;16.20;96.90;;;;;;5036894;28;21062;-82
2022/06/13 02:52:04;;;;;;;9.27;3.17;;;16.20;97.00;;;;;;5018416;28;20810;-83
2022/06/13 02:54:51;;;;;;;9.13;3.20;;;16.20;97.20;;;;;;5030938;28;20748;-83
2022/06/13 02:57:33;;;;;;;7.43;3.47;;;16.20;97.20;;;;;;5037464;28;20455;-82
2022/06/13 03:00:15;;;;;;;7.03;2.90;;;16.20;97.30;;;;;;5036597;28;20430;-83
2022/06/13 03:03:06;;;;;;;8.53;3.43;;;16.20;97.30;;;;;;5036808;28;20503;-82
2022/06/13 03:05:37;;;;;;;15.53;3.17;;;16.20;97.30;;;;;;5023985;28;20420;-82
2022/06/13 03:08:44;;;;;;;9.13;3.80;;;16.20;97.30;;;;;;5036505;28;20447;-82
2022/06/13 03:11:19;;;;;;;5.30;3.03;;;16.20;97.30;;;;;;5028627;28;20426;-82
2022/06/13 03:14:06;;;;;;;7.67;3.23;;;16.20;97.30;;;;;;5036325;28;20415;-83
2022/06/13 03:16:46;;;;;;;10.73;3.67;;;16.20;97.30;;;;;;5035047;28;20452;-82
2022/06/13 03:19:20;;;;;;;5.27;3.10;;;16.20;97.30;;;;;;5022751;28;20495;-83
2022/06/13 03:21:51;;;;;;;9.67;2.90;;;16.20;97.30;;;;;;5034804;28;20479;-83
2022/06/13 03:24:28;;;;;;;6.33;3.00;;;16.20;97.30;;;;;;5035515;28;20790;-83
2022/06/13 03:27:04;;;;;;;7.73;3.37;;;16.10;97.30;;;;;;5035768;28;20526;-83
2022/06/13 03:29:36;;;;;;;10.83;2.83;;;16.10;97.30;;;;;;5035698;28;20502;-83
2022/06/13 03:32:09;;;;;;;8.67;3.20;;;16.10;97.30;;;;;;5036166;28;20415;-83
2022/06/13 03:34:45;;;;;;;10.63;3.50;;;16.10;97.30;;;;;;5035959;28;20473;-82
2022/06/13 03:37:18;;;;;;;5.13;2.80;;;16.10;97.30;;;;;;5035563;28;20506;-83
2022/06/13 03:40:09;;;;;;;12.20;3.87;;;16.10;97.30;;;;;;5036189;28;20422;-83
2022/06/13 03:42:46;;;;;;;5.70;2.73;;;16.10;97.30;;;;;;5032633;28;20541;-83
2022/06/13 03:45:35;;;;;;;5.10;2.80;;;16.10;97.30;;;;;;5035169;28;20445;-82
2022/06/13 03:48:15;;;;;;;11.23;3.20;;;16.10;97.30;;;;;;5035951;28;20443;-82
2022/06/13 03:50:55;;;;;;;6.70;2.87;;;16.10;97.30;;;;;;5035358;28;20502;-82
2022/06/13 03:53:27;;;;;;;4.43;3.30;;;16.10;97.30;;;;;;5023126;28;20423;-83
2022/06/13 03:56:23;;;;;;;7.77;3.43;;;16.00;97.30;;;;;;5035949;28;20419;-83
2022/06/13 03:59:04;;;;;;;8.03;3.40;;;16.00;97.30;;;;;;5032393;28;20469;-82
2022/06/13 04:01:42;;;;;;;9.80;4.33;;;16.00;97.30;;;;;;5035187;28;20873;-82
2022/06/13 04:04:17;;;;;;;6.47;3.10;;;16.00;97.30;;;;;;5036768;28;20411;-83
2022/06/13 04:06:43;;;;;;;5.20;3.30;;;15.90;97.30;;;;;;5035798;28;20477;-82
2022/06/13 04:09:37;;;;;;;7.90;3.60;;;15.90;97.30;;;;;;5040523;28;20423;-84
2022/06/13 04:12:34;;;;;;;12.87;3.50;;;15.90;97.30;;;;;;5056350;23;20595;-87
2022/06/13 04:15:48;;;;;;;13.27;4.27;;;15.90;97.30;;;;;;4992888;28;20475;-90
2022/06/13 04:18:39;;;;;;;7.53;3.20;;;15.90;97.30;;;;;;4985789;28;20444;-90
2022/06/13 04:21:27;;;;;;;10.60;3.53;;;15.90;97.30;;;;;;4980723;28;20413;-90
2022/06/13 04:24:28;;;;;;;8.37;4.37;;;15.90;97.30;;;;;;4992238;28;20961;-90
2022/06/13 04:27:26;;;;;;;9.33;3.73;;;15.90;97.30;;;;;;4992695;28;20414;-91
2022/06/13 04:30:10;;;;;;;7.80;3.80;;;15.90;97.30;;;;;;4983532;28;20457;-90
2022/06/13 04:32:56;;;;;;;7.07;3.73;;;15.90;97.30;;;;;;4978912;28;20444;-91
2022/06/13 04:35:25;;;;;;;8.53;2.93;;;16.00;97.30;;;;;;4993034;28;20435;-90
2022/06/13 04:37:54;;;;;;;7.73;3.13;;;16.00;97.30;;;;;;4992522;28;20491;-90
2022/06/13 04:40:26;;;;;;;7.60;3.40;;;16.00;97.30;;;;;;4989820;28;20432;-89
2022/06/13 04:42:56;;;;;;;7.17;2.80;;;16.00;97.30;;;;;;4991280;28;20464;-90
2022/06/13 04:45:30;;;;;;;11.90;3.73;;;16.00;97.30;;;;;;4992372;28;20414;-90
2022/06/13 04:47:57;;;;;;;5.13;3.30;;;16.10;97.30;;;;;;4989441;28;20417;-89
2022/06/13 04:50:46;;;;;;;6.40;2.97;;;16.10;97.30;;;;;;4983262;28;20969;-90
2022/06/13 04:53:28;;;;;;;17.40;3.53;;;16.10;97.30;;;;;;4986783;28;20454;-91
2022/06/13 04:55:59;;;;;;;9.23;3.10;;;16.20;97.30;;;;;;4986106;28;20431;-89
2022/06/13 04:58:28;;;;;;;5.63;3.33;;;16.20;97.30;;;;;;4979945;28;20421;-89
2022/06/13 05:01:36;;;;;;;8.60;3.30;;;16.20;97.30;;;;;;4992357;28;20916;-90
2022/06/13 05:04:17;;;;;;;14.40;3.67;;;16.30;97.30;;;;;;4992301;28;20459;-90
2022/06/13 05:06:55;;;;;;;10.00;3.17;;;16.30;97.30;;;;;;4978280;28;20441;-90
2022/06/13 05:09:27;;;;;;;6.60;3.30;;;16.30;97.30;;;;;;4992255;28;20447;-90
2022/06/13 05:12:25;;;;;;;8.73;2.83;;;16.30;97.30;;;;;;4991818;28;20471;-90
2022/06/13 05:15:06;;;;;;;8.70;4.03;;;16.30;97.30;;;;;;4992198;28;20524;-90
2022/06/13 05:17:59;;;;;;;13.03;3.60;;;16.30;97.30;;;;;;4972662;28;20433;-90
2022/06/13 05:20:49;;;;;;;8.80;3.50;;;16.30;97.30;;;;;;4991033;28;20425;-89
2022/06/13 05:23:46;;;;;;;9.60;3.63;;;16.30;97.30;;;;;;4991755;28;20464;-90
2022/06/13 05:26:28;;;;;;;5.30;2.90;;;16.40;97.00;;;;;;4991709;28;20420;-90
2022/06/13 05:28:59;;;;;;;16.03;3.10;;;16.40;96.90;;;;;;4991900;28;20443;-90
2022/06/13 05:31:29;;;;;;;17.33;3.53;;;16.40;96.20;;;;;;4988465;28;20445;-90
2022/06/13 05:33:58;;;;;;;24.63;3.50;;;16.50;96.20;;;;;;4989742;28;20428;-90
2022/06/13 05:36:26;;;;;;;10.90;3.13;;;16.50;96.30;;;;;;4991659;28;20417;-88
2022/06/13 05:39:06;;;;;;;6.63;3.07;;;16.50;95.90;;;;;;4989039;28;20413;-89
2022/06/13 05:41:37;;;;;;;7.30;2.73;;;16.60;95.50;;;;;;4982357;28;20459;-89
2022/06/13 05:44:06;;;;;;;12.97;3.77;;;16.60;95.90;;;;;;4991410;28;20417;-90
2022/06/13 05:46:37;;;;;;;10.60;2.87;;;16.60;95.70;;;;;;4991466;28;20429;-88
2022/06/13 05:49:05;;;;;;;9.63;2.90;;;16.70;94.90;;;;;;4991692;28;20420;-89
2022/06/13 05:51:34;;;;;;;4.77;2.47;;;16.70;94.50;;;;;;4982574;28;20476;-90
2022/06/13 05:54:00;;;;;;;7.13;3.67;;;16.70;94.50;;;;;;4985515;28;20417;-90
2022/06/13 05:56:26;;;;;;;5.83;3.00;;;16.70;93.90;;;;;;4978898;28;20428;-89
2022/06/13 05:58:56;;;;;;;5.63;2.63;;;16.70;93.90;;;;;;4988153;28;20418;-91
2022/06/13 06:01:24;;;;;;;11.23;2.70;;;16.60;93.80;;;;;;4991116;28;20198;-92
2022/06/13 06:03:57;;;;;;;10.10;2.60;;;16.60;93.10;;;;;;4991794;28;20504;-92
2022/06/13 06:06:28;;;;;;;5.40;2.70;;;16.70;92.90;;;;;;4991600;28;20415;-90
2022/06/13 06:08:57;;;;;;;6.50;2.80;;;16.70;91.90;;;;;;4994437;28;20425;-89
2022/06/13 06:11:36;;;;;;;3.73;2.40;;;16.70;91.60;;;;;;4994654;28;20552;-90
2022/06/13 06:14:05;;;;;;;7.43;2.70;;;16.80;90.60;;;;;;4991722;28;20460;-90
2022/06/13 06:16:54;;;;;;;4.63;2.40;;;16.80;90.30;;;;;;4994182;28;20421;-90
2022/06/13 06:19:27;;;;;;;3.13;2.13;;;16.80;90.50;;;;;;4982713;28;20425;-90
2022/06/13 06:21:56;;;;;;;6.50;2.87;;;16.80;90.30;;;;;;4991569;28;20464;-90
2022/06/13 06:24:23;;;;;;;6.10;2.20;;;16.80;90.40;;;;;;4995055;28;20500;-89
2022/06/13 06:26:57;;;;;;;6.27;2.63;;;16.80;89.80;;;;;;4994922;28;20417;-89
2022/06/13 06:29:25;;;;;;;5.43;2.50;;;16.80;89.50;;;;;;4994988;28;20409;-89
2022/06/13 06:31:50;;;;;;;7.57;3.07;;;16.80;89.30;;;;;;4994821;28;20539;-90
2022/06/13 06:34:16;;;;;;;6.93;2.23;;;16.80;88.00;;;;;;4994943;28;21121;-90
2022/06/13 06:36:42;;;;;;;6.50;2.63;;;16.80;87.90;;;;;;4983671;28;20317;-90
2022/06/13 06:39:07;;;;;;;6.70;2.40;;;16.90;88.40;;;;;;4989082;28;20181;-90
2022/06/13 06:41:33;;;;;;;8.10;2.40;;;17.00;89.00;;;;;;4985415;28;20260;-90
2022/06/13 06:43:58;;;;;;;4.13;2.40;;;17.00;89.20;;;;;;4994424;28;20273;-90
2022/06/13 06:46:24;;;;;;;5.70;2.57;;;17.10;89.20;;;;;;4994745;28;20185;-91
2022/06/13 06:48:51;;;;;;;6.93;2.70;;;17.20;88.80;;;;;;4991683;28;20174;-90
2022/06/13 06:51:17;;;;;;;7.50;2.60;;;17.40;88.90;;;;;;4994630;28;20260;-88
2022/06/13 06:59:53;;;;;;;5.50;2.50;;;17.40;88.70;;;;;;4994459;28;20417;-88
2022/06/13 07:02:06;;;;;;;5.33;2.37;;;17.60;88.40;;;;;;4995479;28;20448;-89
2022/06/13 07:04:32;;;;;;;7.53;2.50;;;17.70;87.90;;;;;;4994981;28;20433;-88
2022/06/13 07:06:57;;;;;;;9.70;2.30;;;17.70;87.60;;;;;;4994035;28;20409;-88
2022/06/13 07:09:23;;;;;;;8.90;2.70;;;17.80;87.40;;;;;;4993967;28;20181;-88
2022/06/13 07:11:54;;;;;;;7.17;2.80;;;17.80;87.30;;;;;;4993681;28;20229;-89
2022/06/13 07:14:22;;;;;;;4.40;2.50;;;17.90;86.80;;;;;;4993129;28;20189;-88
2022/06/13 07:16:48;;;;;;;10.30;3.50;;;17.90;86.90;;;;;;4984120;28;20424;-89
2022/06/13 07:19:14;;;;;;;4.60;2.30;;;17.90;87.50;;;;;;4993629;28;20425;-89
2022/06/13 07:21:39;;;;;;;13.60;2.80;;;17.90;86.90;;;;;;4993096;28;20197;-87
2022/06/13 07:24:05;;;;;;;8.43;3.27;;;18.00;87.10;;;;;;4988851;28;20183;-88
2022/06/13 07:26:31;;;;;;;8.37;2.43;;;18.00;87.20;;;;;;4976724;28;20201;-88
2022/06/13 07:28:57;;;;;;;8.80;2.90;;;18.00;86.70;;;;;;4993461;28;20197;-88
2022/06/13 07:31:33;;;;;;;7.80;2.73;;;18.00;86.80;;;;;;4993640;28;20209;-88
2022/06/13 07:34:02;;;;;;;13.13;3.03;;;18.00;87.20;;;;;;4993604;28;20428;-89
2022/06/13 07:36:28;;;;;;;13.57;2.87;;;18.00;86.50;;;;;;4993448;28;20431;-88
2022/06/13 07:38:55;;;;;;;9.73;2.90;;;18.00;86.30;;;;;;4993731;28;20676;-88
2022/06/13 07:41:29;;;;;;;4.73;2.83;;;18.00;86.70;;;;;;4992935;28;20205;-88
2022/06/13 07:43:56;;;;;;;6.20;2.90;;;18.00;86.80;;;;;;4992969;28;20452;-88
2022/06/13 07:46:25;;;;;;;7.90;3.03;;;18.10;86.80;;;;;;4993549;28;20423;-89
2022/06/13 07:48:51;;;;;;;6.67;2.83;;;18.10;86.40;;;;;;4992799;28;20413;-89
2022/06/13 07:51:17;;;;;;;4.20;2.20;;;18.30;86.80;;;;;;4994574;28;20480;-90
2022/06/13 07:53:42;;;;;;;9.53;2.93;;;18.40;86.10;;;;;;4994405;28;20991;-89
2022/06/13 07:56:12;;;;;;;7.57;3.23;;;18.40;86.00;;;;;;4993444;28;20657;-88
2022/06/13 07:58:38;;;;;;;5.27;2.10;;;18.40;86.50;;;;;;4993445;28;20676;-90
2022/06/13 08:01:05;;;;;;;6.00;2.57;;;18.50;86.30;;;;;;4992925;28;20433;-90
2022/06/13 08:03:32;;;;;;;6.60;3.00;;;18.50;85.80;;;;;;4992754;28;20457;-89
2022/06/13 08:05:58;;;;;;;5.80;2.30;;;18.50;84.10;;;;;;4994137;28;20429;-88
2022/06/13 08:08:25;;;;;;;6.93;2.47;;;18.50;84.20;;;;;;4992993;28;20429;-89
2022/06/13 08:10:56;;;;;;;5.50;2.47;;;18.50;84.30;;;;;;4987953;28;20958;-89
2022/06/13 08:13:34;;;;;;;10.53;2.40;;;18.60;84.70;;;;;;4985742;28;20551;-88
2022/06/13 08:16:05;;;;;;;10.50;2.63;;;18.60;83.50;;;;;;4993802;28;20420;-89
2022/06/13 08:18:46;;;;;;;5.23;2.20;;;18.60;83.70;;;;;;4993960;28;20424;-90
2022/06/13 08:21:14;;;;;;;8.03;2.87;;;18.60;84.20;;;;;;4992603;28;20519;-89
2022/06/13 08:23:39;;;;;;;6.27;2.70;;;18.60;84.20;;;;;;4992463;28;20447;-88
2022/06/13 08:26:06;;;;;;;6.40;2.43;;;18.60;84.10;;;;;;4989646;28;20426;-88
2022/06/13 08:28:33;;;;;;;9.30;2.93;;;18.60;84.10;;;;;;4988911;28;20185;-88
2022/06/13 08:31:04;;;;;;;9.03;3.00;;;18.60;84.60;;;;;;4985851;28;20918;-88
2022/06/13 08:33:29;;;;;;;11.30;2.87;;;18.50;83.90;;;;;;4987470;28;20503;-88
2022/06/13 08:35:55;;;;;;;4.23;2.60;;;18.50;84.70;;;;;;4979755;28;21042;-89
2022/06/13 08:38:23;;;;;;;12.57;3.10;;;18.40;84.60;;;;;;4992443;28;20174;-89
2022/06/13 08:41:16;;;;;;;5.63;2.27;;;18.40;84.70;;;;;;4978750;28;20178;-88
2022/06/13 08:44:26;;;;;;;7.80;3.30;;;18.30;84.30;;;;;;4992272;28;20421;-89
2022/06/13 08:47:14;;;;;;;6.50;2.60;;;18.40;84.70;;;;;;4993034;28;20441;-89
2022/06/13 08:49:52;;;;;;;7.27;2.90;;;18.50;83.60;;;;;;4980492;28;20435;-88
2022/06/13 08:52:17;;;;;;;9.90;3.10;;;18.60;84.00;;;;;;4992446;28;20498;-88
2022/06/13 08:54:47;;;;;;;6.90;2.60;;;18.70;83.50;;;;;;4992320;28;20436;-89
2022/06/13 08:57:18;;;;;;;5.30;2.33;;;18.70;83.60;;;;;;4992435;28;20203;-88
2022/06/13 08:59:54;;;;;;;10.50;2.70;;;18.80;83.30;;;;;;4979120;28;20817;-89
2022/06/13 09:02:26;;;;;;;7.63;2.80;;;18.80;83.20;;;;;;4992298;28;20456;-90
2022/06/13 09:05:35;;;;;;;9.37;3.30;;;18.90;82.90;;;;;;4979348;28;20421;-90
2022/06/13 09:08:16;;;;;;;7.80;2.60;;;18.90;83.20;;;;;;4983840;28;20453;-89
2022/06/13 09:10:55;;;;;;;10.27;4.23;;;18.90;82.70;;;;;;4992201;28;20427;-88
2022/06/13 09:13:47;;;;;;;6.60;3.70;;;18.90;82.40;;;;;;4975816;28;20620;-88
2022/06/13 09:16:21;;;;;;;9.80;2.70;;;18.90;82.50;;;;;;4980126;28;20457;-91
2022/06/13 09:19:26;;;;;;;3.10;2.40;;;18.90;82.50;;;;;;4977980;28;20417;-89
2022/06/13 09:22:14;;;;;;;6.27;2.50;;;18.80;82.00;;;;;;4989377;28;20464;-89
2022/06/13 09:25:01;;;;;;;5.50;2.70;;;18.70;82.10;;;;;;4988699;28;20432;-89
2022/06/13 09:27:40;;;;;;;5.43;2.93;;;18.70;81.90;;;;;;4982715;28;21090;-88
2022/06/13 09:30:20;;;;;;;9.33;2.80;;;18.50;82.20;;;;;;4992296;28;20924;-89
2022/06/13 09:32:56;;;;;;;8.17;3.03;;;18.50;82.30;;;;;;4991935;28;20531;-89
2022/06/13 09:35:35;;;;;;;9.80;2.40;;;18.40;82.40;;;;;;4992004;28;21169;-88
2022/06/13 09:38:28;;;;;;;4.33;2.60;;;18.40;83.30;;;;;;4979694;28;20504;-87
2022/06/13 09:41:18;;;;;;;9.83;2.97;;;18.40;83.60;;;;;;4980790;28;20456;-90
2022/06/13 09:44:07;;;;;;;6.67;2.77;;;18.40;83.60;;;;;;4993024;28;20464;-89
2022/06/13 09:47:00;;;;;;;14.10;3.43;;;18.40;83.40;;;;;;4995667;28;20799;-88
2022/06/13 09:49:36;;;;;;;15.13;2.73;;;18.30;84.00;;;;;;4976314;28;20512;-88
2022/06/13 09:52:26;;;;;;;11.00;2.73;;;18.30;84.80;;;;;;4992503;28;20448;-89
2022/06/13 09:55:30;;;;;;;8.20;3.20;;;18.40;85.40;;;;;;4996695;28;20425;-90
2022/06/13 09:58:16;;;;;;;10.33;2.50;;;18.40;85.70;;;;;;4987292;28;20436;-91
2022/06/13 10:03:55;;;;;;;6.10;2.87;;;18.50;84.80;;;;;;5021852;23;20503;-82
2022/06/13 10:06:41;;;;;;;5.53;2.97;;;18.60;84.80;;;;;;5016714;28;20507;-82
2022/06/13 10:09:28;;;;;;;8.53;2.73;;;18.60;84.50;;;;;;4998222;28;20416;-83
2022/06/13 10:12:26;;;;;;;5.00;2.83;;;18.60;83.70;;;;;;4998432;28;20416;-83
2022/06/13 10:15:13;;;;;;;8.43;2.73;;;18.60;83.90;;;;;;4996943;28;20417;-83
2022/06/13 10:17:52;;;;;;;9.00;2.50;;;18.50;83.50;;;;;;4988283;28;20437;-84
2022/06/13 10:20:24;;;;;;;5.83;2.67;;;18.40;83.70;;;;;;5010898;28;20422;-83
2022/06/13 10:23:07;;;;;;;7.40;2.97;;;18.40;84.40;;;;;;4989219;28;20460;-82
2022/06/13 10:26:07;;;;;;;10.90;3.00;;;18.30;84.40;;;;;;4998030;28;20429;-83
2022/06/13 10:28:53;;;;;;;7.60;3.77;;;18.30;84.50;;;;;;4998263;28;20452;-83
2022/06/13 10:31:52;;;;;;;10.50;2.90;;;18.20;84.50;;;;;;4998243;28;20419;-83
2022/06/13 10:34:21;;;;;;;6.50;2.97;;;18.20;85.00;;;;;;5000128;28;20417;-84
2022/06/13 10:36:57;;;;;;;10.33;3.20;;;18.10;86.50;;;;;;4996114;28;20456;-84
2022/06/13 10:39:26;;;;;;;9.60;3.17;;;18.10;88.50;;;;;;5010505;28;20428;-84
2022/06/13 10:42:05;;;;;;;8.57;3.37;;;18.10;88.80;;;;;;4995881;28;20448;-84
2022/06/13 10:44:32;;;;;;;11.80;3.43;;;18.00;91.50;;;;;;4995482;28;20413;-84
2022/06/13 10:47:05;;;;;;;10.50;3.30;;;17.90;91.50;;;;;;4994476;28;20436;-83
2022/06/13 10:49:37;;;;;;;9.83;3.10;;;17.70;92.90;;;;;;5011848;28;20441;-84
2022/06/13 10:52:09;;;;;;;6.60;3.33;;;17.50;93.80;;;;;;4998163;28;20488;-84
2022/06/13 10:54:45;;;;;;;5.63;2.47;;;17.30;93.00;;;;;;5000534;28;20419;-83
2022/06/13 10:57:21;;;;;;;8.70;3.97;;;17.10;93.20;;;;;;5014369;28;20470;-83
2022/06/13 11:00:23;;;;;;;6.50;3.20;;;16.80;94.50;;;;;;4986838;28;20416;-82
2022/06/13 11:02:50;;;;;;;8.93;3.17;;;16.60;95.20;;;;;;4997517;28;20468;-83
2022/06/13 11:05:23;;;;;;;7.73;2.80;;;16.50;96.20;;;;;;5013885;28;20491;-82
2022/06/13 11:07:53;;;;;;;12.53;3.30;;;16.30;97.10;;;;;;4997578;28;20532;-82
2022/06/13 11:10:32;;;;;;;7.30;4.00;;;16.30;97.30;;;;;;5012779;28;20708;-82
2022/06/13 11:12:59;;;;;;;9.03;4.13;;;16.30;97.30;;;;;;4998163;28;20910;-82
2022/06/13 11:24:11;;;;;;;6.00;3.40;;;16.80;97.30;;;;;;4985786;28;20479;-82
2022/06/13 11:29:24;;;;;;;5.30;2.77;;;17.10;97.30;;;;;;4998395;28;20563;-83
2022/06/13 11:31:51;;;;;;;4.17;2.70;;;17.10;97.30;;;;;;4996404;28;20448;-83
2022/06/13 11:34:28;;;;;;;4.77;2.97;;;17.20;97.30;;;;;;4996964;28;20197;-83
2022/06/13 11:37:23;;;;;;;13.53;3.10;;;17.20;97.30;;;;;;4996366;28;20440;-82
2022/06/13 11:39:51;;;;;;;9.47;3.13;;;17.30;97.30;;;;;;4996547;28;20921;-82
2022/06/13 11:42:26;;;;;;;10.80;3.43;;;17.40;97.30;;;;;;4996302;28;20469;-82
2022/06/13 11:45:03;;;;;;;5.63;3.53;;;17.60;97.30;;;;;;4997198;28;20424;-82
2022/06/13 11:47:45;;;;;;;12.50;4.13;;;17.70;97.30;;;;;;4997009;28;20793;-82
2022/06/13 11:50:24;;;;;;;5.73;2.70;;;17.80;97.30;;;;;;4998846;28;20853;-83
2022/06/13 11:55:56;;;;;;;5.93;4.07;;;18.00;97.30;;;;;;4998742;28;20444;-82
2022/06/13 11:58:28;;;;;;;7.00;2.90;;;18.10;97.30;;;;;;5012290;28;20436;-82
2022/06/13 12:01:02;;;;;;;7.97;2.50;;;18.30;97.10;;;;;;4995735;28;20432;-82
2022/06/13 12:03:29;;;;;;;7.50;3.30;;;18.40;94.70;;;;;;4997649;28;20472;-82
2022/06/13 12:06:10;;;;;;;5.17;2.60;;;18.60;95.20;;;;;;4995617;28;20779;-82
2022/06/13 12:08:37;;;;;;;6.77;2.87;;;18.80;95.40;;;;;;4997255;28;20914;-83
2022/06/13 12:11:21;;;;;;;9.77;3.20;;;19.00;93.50;;;;;;4995401;28;20417;-82
2022/06/13 12:13:49;;;;;;;5.13;2.80;;;19.10;93.80;;;;;;4996183;28;20840;-82
2022/06/13 12:16:20;;;;;;;8.30;3.20;;;19.30;93.00;;;;;;5011943;28;20472;-82
2022/06/13 12:19:00;;;;;;;8.13;3.47;;;19.40;93.10;;;;;;5012518;28;20476;-82
2022/06/13 12:21:42;;;;;;;8.33;2.50;;;19.60;92.00;;;;;;5012389;28;20409;-83
2022/06/13 12:24:46;;;;;;;7.40;2.27;;;19.70;89.60;;;;;;4996572;28;20397;-82
2022/06/13 12:27:36;;;;;;;9.67;3.27;;;19.80;87.30;;;;;;5001223;28;20444;-82
2022/06/13 12:30:20;;;;;;;9.23;3.13;;;19.90;87.50;;;;;;4986319;28;20945;-83
2022/06/13 12:33:06;;;;;;;4.10;2.60;;;20.10;86.50;;;;;;5024782;23;20491;-88
2022/06/13 12:35:52;;;;;;;6.67;2.53;;;20.20;88.50;;;;;;5031199;28;20957;-86
2022/06/13 12:38:37;;;;;;;6.97;2.63;;;20.40;86.60;;;;;;5031133;28;20412;-84
2022/06/13 12:41:18;;;;;;;18.00;3.30;;;20.60;86.80;;;;;;5028129;28;20414;-89
2022/06/13 12:44:18;;;;;;;4.20;2.40;;;20.70;83.80;;;;;;5021188;28;20467;-88
2022/06/13 12:47:16;;;;;;;5.60;2.90;;;20.60;84.10;;;;;;5029246;28;20434;-88
2022/06/13 12:50:02;;;;;;;6.37;2.90;;;20.70;85.90;;;;;;5015668;28;20519;-89
2022/06/13 12:52:54;;;;;;;6.90;2.70;;;20.60;86.30;;;;;;5032230;28;20960;-90
2022/06/13 12:55:53;;;;;;;5.80;3.07;;;20.40;86.30;;;;;;5032604;28;20415;-90
2022/06/13 12:58:35;;;;;;;8.73;2.90;;;20.40;87.00;;;;;;5030167;28;21003;-89
2022/06/13 13:01:22;;;;;;;7.43;3.13;;;20.30;86.90;;;;;;5030355;28;20423;-89
2022/06/13 13:04:32;;;;;;;9.70;2.73;;;20.50;85.80;;;;;;5032286;28;20423;-90
2022/06/13 13:07:05;;;;;;;5.53;2.73;;;20.80;86.40;;;;;;5025849;28;20424;-89
2022/06/13 13:09:55;;;;;;;8.30;3.23;;;21.10;84.60;;;;;;5030663;28;20426;-90
2022/06/13 13:12:33;;;;;;;6.23;2.33;;;21.10;83.50;;;;;;5028664;28;20453;-90
2022/06/13 13:15:17;;;;;;;7.47;2.93;;;21.20;84.70;;;;;;5031438;28;20861;-89
2022/06/13 13:18:08;;;;;;;4.83;2.53;;;21.30;85.60;;;;;;5043618;28;20414;-90
2022/06/13 13:20:59;;;;;;;9.63;3.17;;;21.60;84.00;;;;;;5020398;28;20497;-89
2022/06/13 13:23:45;;;;;;;21.40;3.27;;;21.80;83.70;;;;;;5021547;28;20443;-90
2022/06/13 13:26:53;;;;;;;17.47;3.50;;;22.00;82.10;;;;;;5051763;28;20411;-89
2022/06/13 13:29:37;;;;;;;8.67;2.40;;;22.20;81.70;;;;;;5019086;28;20936;-89
2022/06/13 13:32:44;;;;;;;4.80;2.37;;;22.10;80.50;;;;;;5025438;28;20516;-87
2022/06/13 13:35:15;;;;;;;5.80;2.57;;;22.10;79.50;;;;;;5029583;28;21016;-89
2022/06/13 13:37:48;;;;;;;7.57;2.77;;;22.00;79.90;;;;;;5050879;28;20427;-89
2022/06/13 13:40:32;;;;;;;6.27;2.03;;;21.90;80.50;;;;;;5035797;28;20415;-90
2022/06/13 13:43:03;;;;;;;6.43;2.33;;;21.80;80.30;;;;;;5016306;28;20463;-90
2022/06/13 13:45:51;;;;;;;5.47;2.70;;;21.70;80.40;;;;;;5029099;28;20423;-89
2022/06/13 13:48:40;;;;;;;4.40;2.33;;;21.60;80.40;;;;;;5030986;28;20417;-90
2022/06/13 13:51:16;;;;;;;7.03;2.50;;;21.50;80.20;;;;;;5029793;28;20849;-89
2022/06/13 13:53:50;;;;;;;3.80;2.40;;;21.30;77.40;;;;;;5030268;28;20426;-89
2022/06/13 13:56:29;;;;;;;6.87;2.70;;;21.10;77.00;;;;;;5029488;28;20428;-89
2022/06/13 13:58:56;;;;;;;5.33;2.33;;;21.20;77.60;;;;;;5036228;28;20428;-89
2022/06/13 14:01:57;;;;;;;7.00;2.20;;;21.30;77.70;;;;;;5026649;28;20446;-89
2022/06/13 14:04:33;;;;;;;9.90;3.37;;;21.30;78.10;;;;;;5005375;28;20429;-89